createdAt,value
2022-10-17T00:04:44.275Z,101133.40
2022-10-17T00:09:51.159Z,101126.09
2022-10-17T00:14:56.651Z,101124.11
2022-10-17T00:20:00.886Z,101120.31
2022-10-17T00:25:07.397Z,101122.61
2022-10-17T00:30:13.801Z,101127.99
2022-10-17T00:35:23.655Z,101149.08
2022-10-17T00:40:29.623Z,101141.45
2022-10-17T00:45:32.902Z,101140.33
2022-10-17T00:50:49.398Z,101149.91
2022-10-17T00:55:54.481Z,101158.04
2022-10-17T01:01:01.038Z,101157.81
2022-10-17T01:06:04.416Z,101163.45
2022-10-17T01:11:31.985Z,101156.41
2022-10-17T01:17:17.056Z,101149.52
2022-10-17T01:22:57.069Z,101148.75
2022-10-17T01:28:06.746Z,101148.71
2022-10-17T01:33:35.678Z,101155.86
2022-10-17T01:38:53.788Z,101160.45
2022-10-17T01:44:06.004Z,101161.59
2022-10-17T01:49:11.605Z,101158.84
2022-10-17T01:54:19.904Z,101155.88
2022-10-17T01:59:31.628Z,101146.92
2022-10-17T02:04:35.715Z,101141.51
2022-10-17T02:09:41.282Z,101131.48
2022-10-17T02:15:09.224Z,101130.99
2022-10-17T02:20:21.986Z,101129.38
2022-10-17T02:25:42.602Z,101137.09
2022-10-17T02:31:01.106Z,101144.87
2022-10-17T02:36:12.099Z,101156.42
2022-10-17T02:41:18.231Z,101167.48
2022-10-17T02:46:23.816Z,101175.15
2022-10-17T02:51:27.160Z,101184.73
2022-10-17T02:56:36.238Z,101179.36
2022-10-17T03:01:40.824Z,101174.56
2022-10-17T03:06:46.605Z,101191.25
2022-10-17T03:11:51.298Z,101191.55
2022-10-17T03:16:59.301Z,101194.92
2022-10-17T03:22:03.356Z,101188.19
2022-10-17T03:27:09.265Z,101177.05
2022-10-17T03:32:13.242Z,101174.96
2022-10-17T03:37:16.573Z,101187.34
2022-10-17T03:42:21.896Z,101190.63
2022-10-17T03:47:25.391Z,101195.27
2022-10-17T03:52:28.779Z,101205.20
2022-10-17T03:57:32.482Z,101207.64
2022-10-17T04:02:37.441Z,101202.86
2022-10-17T04:07:41.082Z,101211.83
2022-10-17T04:12:45.680Z,101212.38
2022-10-17T04:17:54.313Z,101210.19
2022-10-17T04:22:58.802Z,101211.91
2022-10-17T04:28:02.235Z,101212.28
2022-10-17T04:33:07.464Z,101209.70
2022-10-17T04:38:10.845Z,101211.19
2022-10-17T04:43:14.593Z,101216.77
2022-10-17T04:48:21.401Z,101219.91
2022-10-17T04:53:25.108Z,101215.14
2022-10-17T04:58:30.471Z,101211.05
2022-10-17T05:03:34.768Z,101215.77
2022-10-17T05:08:38.905Z,101215.33
2022-10-17T05:13:43.133Z,101218.39
2022-10-17T05:18:53.024Z,101225.78
2022-10-17T05:23:58.233Z,101234.90
2022-10-17T05:29:03.312Z,101239.70
2022-10-17T05:34:13.183Z,101247.96
2022-10-17T05:39:20.115Z,101255.46
2022-10-17T05:44:24.410Z,101263.61
2022-10-17T05:49:45.988Z,101270.11
2022-10-17T05:54:53.338Z,101279.18
2022-10-17T06:00:01.354Z,101279.80
2022-10-17T06:05:19.401Z,101284.71
2022-10-17T06:10:23.907Z,101288.27
2022-10-17T06:15:30.274Z,101289.33
2022-10-17T06:20:45.357Z,101286.31
2022-10-17T06:25:58.239Z,101287.57
2022-10-17T06:31:13.518Z,101290.95
2022-10-17T06:36:19.543Z,101295.63
2022-10-17T06:41:26.551Z,101299.95
2022-10-17T06:46:33.509Z,101303.99
2022-10-17T06:51:40.364Z,101304.16
2022-10-17T06:56:47.636Z,101307.38
2022-10-17T07:02:13.052Z,101307.19
2022-10-17T07:07:19.678Z,101314.38
2022-10-17T07:12:24.585Z,101325.21
2022-10-17T07:17:28.105Z,101327.27
2022-10-17T07:22:34.439Z,101331.58
2022-10-17T07:27:38.434Z,101331.72
2022-10-17T07:32:43.323Z,101333.11
2022-10-17T07:37:46.917Z,101337.56
2022-10-17T07:42:52.949Z,101339.63
2022-10-17T07:47:58.233Z,101341.45
2022-10-17T07:53:01.719Z,101339.98
2022-10-17T07:58:05.003Z,101341.86
2022-10-17T08:03:08.946Z,101340.93
2022-10-17T08:08:17.340Z,101344.57
2022-10-17T08:13:21.545Z,101336.71
2022-10-17T08:18:25.531Z,101336.64
2022-10-17T08:23:31.686Z,101331.98
2022-10-17T08:28:37.308Z,101333.30
2022-10-17T08:33:41.944Z,101332.15
2022-10-17T08:38:50.331Z,101336.63
2022-10-17T08:44:23.215Z,101336.58
2022-10-17T08:49:53.350Z,101331.77
2022-10-17T08:54:57.088Z,101327.61
2022-10-17T09:00:00.558Z,101327.35
2022-10-17T09:05:10.553Z,101325.81
2022-10-17T09:10:24.483Z,101320.97
2022-10-17T09:15:58.541Z,101317.09
2022-10-17T09:21:10.857Z,101319.65
2022-10-17T09:26:17.215Z,101326.52
2022-10-17T09:31:49.983Z,101330.02
2022-10-17T09:36:54.131Z,101328.17
2022-10-17T09:42:02.376Z,101316.78
2022-10-17T09:47:42.030Z,101321.69
2022-10-17T09:52:50.987Z,101312.29
2022-10-17T09:58:00.904Z,101311.94
2022-10-17T10:03:22.406Z,101317.50
2022-10-17T10:08:35.675Z,101316.98
2022-10-17T10:13:38.978Z,101311.09
2022-10-17T10:18:42.547Z,101310.88
2022-10-17T10:24:02.661Z,101310.02
2022-10-17T10:29:31.104Z,101311.45
2022-10-17T10:34:36.241Z,101306.80
2022-10-17T10:39:58.113Z,101310.08
2022-10-17T10:45:43.289Z,101304.56
2022-10-17T10:51:06.412Z,101299.52
2022-10-17T10:56:21.956Z,101302.52
2022-10-17T11:01:35.848Z,101294.98
2022-10-17T11:06:42.880Z,101287.26
2022-10-17T11:12:02.243Z,101291.58
2022-10-17T11:17:11.456Z,101291.48
2022-10-17T11:22:39.773Z,101286.73
2022-10-17T11:27:43.067Z,101274.83
2022-10-17T11:33:01.938Z,101276.65
2022-10-17T11:38:19.290Z,101273.72
2022-10-17T11:43:44.746Z,101274.27
2022-10-17T11:49:01.884Z,101273.90
2022-10-17T11:54:11.234Z,101264.89
2022-10-17T11:59:41.411Z,101257.09
2022-10-17T12:04:55.028Z,101245.48
2022-10-17T12:10:17.166Z,101241.11
2022-10-17T12:15:26.873Z,101241.70
2022-10-17T12:20:32.487Z,101239.96
2022-10-17T12:30:58.717Z,101238.90
2022-10-17T12:36:17.484Z,101238.55
2022-10-17T12:41:39.361Z,101237.23
2022-10-17T12:47:04.299Z,101237.01
2022-10-17T12:52:32.787Z,101225.94
2022-10-17T12:57:42.871Z,101224.52
2022-10-17T13:02:51.965Z,101225.84
2022-10-17T13:07:56.846Z,101229.04
2022-10-17T13:13:08.984Z,101231.97
2022-10-17T13:18:19.614Z,101230.60
2022-10-17T13:23:27.002Z,101227.92
2022-10-17T13:28:39.678Z,101223.85
2022-10-17T13:33:43.209Z,101221.90
2022-10-17T13:38:56.225Z,101217.04
2022-10-17T13:44:04.335Z,101210.65
2022-10-17T13:49:25.976Z,101210.37
2022-10-17T13:54:35.750Z,101214.29
2022-10-17T13:59:41.767Z,101217.30
2022-10-17T14:05:15.271Z,101215.60
2022-10-17T14:10:37.239Z,101212.50
2022-10-17T14:15:46.128Z,101207.70
2022-10-17T14:26:22.918Z,101200.70
2022-10-17T14:31:34.547Z,101201.88
2022-10-17T14:36:38.479Z,101207.16
2022-10-17T14:41:46.089Z,101200.59
2022-10-17T14:46:54.720Z,101199.79
2022-10-17T14:52:19.256Z,101195.66
2022-10-17T14:57:35.744Z,101203.04
2022-10-17T15:02:47.277Z,101199.00
2022-10-17T15:07:53.779Z,101191.11
2022-10-17T15:13:26.072Z,101189.48
2022-10-17T15:18:26.936Z,101187.38
2022-10-17T15:23:30.721Z,101193.02
2022-10-17T15:28:36.448Z,101194.73
2022-10-17T15:33:41.257Z,101197.42
2022-10-17T15:38:48.742Z,101192.39
2022-10-17T15:43:56.375Z,101185.59
2022-10-17T15:49:07.760Z,101188.02
2022-10-17T15:59:26.504Z,101190.71
2022-10-17T16:04:41.081Z,101192.90
2022-10-17T16:09:46.586Z,101197.13
2022-10-17T16:14:51.438Z,101193.88
2022-10-17T16:20:04.667Z,101195.45
2022-10-17T16:25:33.747Z,101197.13
2022-10-17T16:30:58.839Z,101203.19
2022-10-17T16:36:07.138Z,101208.31
2022-10-17T16:41:33.763Z,101207.56
2022-10-17T16:46:45.232Z,101206.63
2022-10-17T16:52:01.130Z,101202.13
2022-10-17T16:57:05.322Z,101204.14
2022-10-17T17:02:30.208Z,101207.46
2022-10-17T17:07:49.602Z,101210.15
2022-10-17T17:13:15.095Z,101210.39
2022-10-17T17:18:43.265Z,101212.80
2022-10-17T17:23:58.821Z,101207.54
2022-10-17T17:29:18.084Z,101209.08
2022-10-17T17:34:27.338Z,101209.36
2022-10-17T17:39:34.513Z,101206.45
2022-10-17T17:44:39.908Z,101208.69
2022-10-17T17:49:43.385Z,101207.17
2022-10-17T17:54:49.747Z,101209.40
2022-10-17T17:59:56.800Z,101205.87
2022-10-17T18:05:01.687Z,101210.51
2022-10-17T18:15:22.206Z,101216.16
2022-10-17T18:20:28.189Z,101214.87
2022-10-17T18:25:40.031Z,101215.94
2022-10-17T18:30:44.389Z,101220.70
2022-10-17T18:35:49.552Z,101217.08
2022-10-17T18:41:03.248Z,101216.34
2022-10-17T18:46:15.092Z,101217.15
2022-10-17T18:51:26.787Z,101218.05
2022-10-17T18:56:33.583Z,101217.21
2022-10-17T19:01:36.987Z,101216.48
2022-10-17T19:06:43.382Z,101218.48
2022-10-17T19:11:47.093Z,101225.45
2022-10-17T19:16:51.953Z,101227.71
2022-10-17T19:21:55.566Z,101227.52
2022-10-17T19:27:05.604Z,101222.83
2022-10-17T19:32:15.629Z,101225.74
2022-10-17T19:37:21.910Z,101233.67
2022-10-17T19:42:26.330Z,101240.62
2022-10-17T19:47:29.786Z,101237.66
2022-10-17T19:52:47.679Z,101240.00
2022-10-17T19:57:52.714Z,101239.52
2022-10-17T20:02:57.146Z,101237.21
2022-10-17T20:08:03.791Z,101239.36
2022-10-17T20:13:10.179Z,101239.14
2022-10-17T20:18:13.454Z,101232.54
2022-10-17T20:23:17.298Z,101234.87
2022-10-17T20:28:21.147Z,101243.06
2022-10-17T20:33:31.733Z,101247.66
2022-10-17T20:38:40.287Z,101257.06
2022-10-17T20:43:46.226Z,101255.77
2022-10-17T20:48:56.159Z,101258.98
2022-10-17T20:54:04.406Z,101256.72
2022-10-17T20:59:13.409Z,101253.29
2022-10-17T21:09:42.760Z,101256.34
2022-10-17T21:14:47.481Z,101250.88
2022-10-17T21:20:00.220Z,101258.45
2022-10-17T21:25:04.288Z,101247.96
2022-10-17T21:30:23.290Z,101248.89
2022-10-17T21:35:33.912Z,101256.54
2022-10-17T21:40:55.324Z,101256.27
2022-10-17T21:46:20.896Z,101246.22
2022-10-17T21:51:40.264Z,101246.58
2022-10-17T21:56:54.536Z,101254.17
2022-10-17T22:02:01.724Z,101254.17
2022-10-17T22:07:11.822Z,101250.95
2022-10-17T22:12:15.473Z,101244.22
2022-10-17T22:17:18.787Z,101243.04
2022-10-17T22:22:22.507Z,101247.92
2022-10-17T22:27:25.861Z,101255.99
2022-10-17T22:32:29.181Z,101253.59
2022-10-17T22:37:32.741Z,101248.38
2022-10-17T22:42:36.938Z,101251.27
2022-10-17T22:47:40.415Z,101244.55
2022-10-17T22:52:43.605Z,101234.88
2022-10-17T22:57:47.437Z,101241.48
2022-10-17T23:02:54.417Z,101247.34
2022-10-17T23:07:57.793Z,101252.34
2022-10-17T23:13:01.087Z,101247.54
2022-10-17T23:18:07.044Z,101242.48
2022-10-17T23:23:10.996Z,101248.46
2022-10-17T23:28:21.521Z,101244.28
2022-10-17T23:33:25.055Z,101245.70
2022-10-17T23:38:28.378Z,101237.29
2022-10-17T23:43:32.049Z,101231.09
2022-10-17T23:48:35.607Z,101227.91
2022-10-17T23:53:39.675Z,101229.24
2022-10-17T23:58:43.023Z,101227.30
